sensor_id;sensor_type;location;lat;lon;timestamp;P1;durP1;ratioP1;P2;durP2;ratioP2
55879;SDS011;41802;51.564;-1.838;2023-07-24T00:02:12;4.93;;;1.65;;
55879;SDS011;41802;51.564;-1.838;2023-07-24T00:04:40;5.63;;;1.23;;
55879;SDS011;41802;51.564;-1.838;2023-07-24T00:07:08;4.60;;;1.30;;
55879;SDS011;41802;51.564;-1.838;2023-07-24T00:09:36;5.50;;;1.63;;
55879;SDS011;41802;51.564;-1.838;2023-07-24T00:12:10;6.63;;;1.70;;
55879;SDS011;41802;51.564;-1.838;2023-07-24T00:14:38;6.55;;;1.42;;
55879;SDS011;41802;51.564;-1.838;2023-07-24T00:17:07;6.38;;;1.67;;
55879;SDS011;41802;51.564;-1.838;2023-07-24T00:19:35;7.90;;;1.90;;
55879;SDS011;41802;51.564;-1.838;2023-07-24T00:22:03;5.80;;;1.63;;
55879;SDS011;41802;51.564;-1.838;2023-07-24T00:24:31;8.45;;;1.85;;
55879;SDS011;41802;51.564;-1.838;2023-07-24T00:26:58;8.07;;;1.80;;
55879;SDS011;41802;51.564;-1.838;2023-07-24T00:29:26;8.55;;;2.10;;
55879;SDS011;41802;51.564;-1.838;2023-07-24T00:31:54;4.60;;;1.50;;
55879;SDS011;41802;51.564;-1.838;2023-07-24T00:34:23;7.83;;;1.77;;
55879;SDS011;41802;51.564;-1.838;2023-07-24T00:36:53;6.88;;;2.38;;
55879;SDS011;41802;51.564;-1.838;2023-07-24T00:39:21;5.30;;;1.30;;
55879;SDS011;41802;51.564;-1.838;2023-07-24T00:41:49;5.90;;;1.60;;
55879;SDS011;41802;51.564;-1.838;2023-07-24T00:44:18;7.03;;;1.98;;
55879;SDS011;41802;51.564;-1.838;2023-07-24T00:46:48;5.90;;;1.53;;
55879;SDS011;41802;51.564;-1.838;2023-07-24T00:49:16;10.43;;;2.03;;
55879;SDS011;41802;51.564;-1.838;2023-07-24T00:51:46;6.40;;;2.15;;
55879;SDS011;41802;51.564;-1.838;2023-07-24T00:54:14;9.82;;;2.10;;
55879;SDS011;41802;51.564;-1.838;2023-07-24T00:56:43;5.43;;;2.00;;
55879;SDS011;41802;51.564;-1.838;2023-07-24T00:59:14;17.73;;;2.03;;
55879;SDS011;41802;51.564;-1.838;2023-07-24T01:01:42;8.63;;;2.00;;
55879;SDS011;41802;51.564;-1.838;2023-07-24T01:04:10;6.95;;;2.30;;
55879;SDS011;41802;51.564;-1.838;2023-07-24T01:06:37;8.18;;;1.77;;
55879;SDS011;41802;51.564;-1.838;2023-07-24T01:09:07;8.07;;;1.80;;
55879;SDS011;41802;51.564;-1.838;2023-07-24T01:11:36;6.57;;;1.60;;
55879;SDS011;41802;51.564;-1.838;2023-07-24T01:14:06;9.02;;;1.77;;
55879;SDS011;41802;51.564;-1.838;2023-07-24T01:16:37;6.05;;;1.60;;
55879;SDS011;41802;51.564;-1.838;2023-07-24T01:19:07;8.77;;;1.60;;
55879;SDS011;41802;51.564;-1.838;2023-07-24T01:21:44;6.03;;;1.50;;
55879;SDS011;41802;51.564;-1.838;2023-07-24T01:24:19;10.60;;;1.90;;
55879;SDS011;41802;51.564;-1.838;2023-07-24T01:26:52;8.13;;;2.30;;
55879;SDS011;41802;51.564;-1.838;2023-07-24T01:29:20;6.32;;;1.85;;
55879;SDS011;41802;51.564;-1.838;2023-07-24T01:31:48;6.55;;;2.00;;
55879;SDS011;41802;51.564;-1.838;2023-07-24T01:34:16;10.57;;;1.90;;
55879;SDS011;41802;51.564;-1.838;2023-07-24T01:36:43;7.00;;;1.50;;
55879;SDS011;41802;51.564;-1.838;2023-07-24T01:39:11;9.10;;;2.10;;
55879;SDS011;41802;51.564;-1.838;2023-07-24T01:41:58;7.03;;;1.95;;
55879;SDS011;41802;51.564;-1.838;2023-07-24T01:44:27;6.00;;;2.10;;
55879;SDS011;41802;51.564;-1.838;2023-07-24T01:46:55;5.20;;;2.00;;
55879;SDS011;41802;51.564;-1.838;2023-07-24T01:49:24;6.17;;;1.80;;
55879;SDS011;41802;51.564;-1.838;2023-07-24T01:51:52;8.07;;;2.08;;
55879;SDS011;41802;51.564;-1.838;2023-07-24T01:54:20;7.72;;;2.22;;
55879;SDS011;41802;51.564;-1.838;2023-07-24T01:56:51;6.47;;;1.85;;
55879;SDS011;41802;51.564;-1.838;2023-07-24T01:59:20;9.30;;;2.28;;
55879;SDS011;41802;51.564;-1.838;2023-07-24T02:01:48;9.20;;;1.83;;
55879;SDS011;41802;51.564;-1.838;2023-07-24T02:04:16;9.07;;;2.25;;
55879;SDS011;41802;51.564;-1.838;2023-07-24T02:06:43;6.65;;;1.85;;
55879;SDS011;41802;51.564;-1.838;2023-07-24T02:09:11;8.32;;;2.10;;
55879;SDS011;41802;51.564;-1.838;2023-07-24T02:11:38;11.25;;;2.10;;
55879;SDS011;41802;51.564;-1.838;2023-07-24T02:14:06;8.50;;;1.83;;
55879;SDS011;41802;51.564;-1.838;2023-07-24T02:16:36;6.80;;;1.80;;
55879;SDS011;41802;51.564;-1.838;2023-07-24T02:19:04;7.50;;;1.80;;
55879;SDS011;41802;51.564;-1.838;2023-07-24T02:21:32;6.85;;;2.10;;
55879;SDS011;41802;51.564;-1.838;2023-07-24T02:24:00;11.77;;;1.95;;
55879;SDS011;41802;51.564;-1.838;2023-07-24T02:26:27;7.13;;;1.67;;
55879;SDS011;41802;51.564;-1.838;2023-07-24T02:28:55;6.68;;;1.60;;
55879;SDS011;41802;51.564;-1.838;2023-07-24T02:31:23;8.90;;;1.85;;
55879;SDS011;41802;51.564;-1.838;2023-07-24T02:33:52;9.23;;;1.85;;
55879;SDS011;41802;51.564;-1.838;2023-07-24T02:36:20;6.18;;;1.80;;
55879;SDS011;41802;51.564;-1.838;2023-07-24T02:38:47;9.87;;;2.13;;
55879;SDS011;41802;51.564;-1.838;2023-07-24T02:41:15;9.18;;;1.67;;
55879;SDS011;41802;51.564;-1.838;2023-07-24T02:43:42;13.65;;;2.80;;
55879;SDS011;41802;51.564;-1.838;2023-07-24T02:46:10;7.75;;;2.03;;
55879;SDS011;41802;51.564;-1.838;2023-07-24T02:48:38;8.30;;;2.08;;
55879;SDS011;41802;51.564;-1.838;2023-07-24T02:51:07;10.20;;;2.20;;
55879;SDS011;41802;51.564;-1.838;2023-07-24T02:53:35;7.40;;;1.70;;
55879;SDS011;41802;51.564;-1.838;2023-07-24T02:56:03;5.55;;;1.98;;
55879;SDS011;41802;51.564;-1.838;2023-07-24T02:58:31;6.30;;;2.00;;
55879;SDS011;41802;51.564;-1.838;2023-07-24T03:01:02;6.80;;;1.83;;
55879;SDS011;41802;51.564;-1.838;2023-07-24T03:03:30;9.37;;;1.87;;
55879;SDS011;41802;51.564;-1.838;2023-07-24T03:06:01;8.65;;;2.05;;
55879;SDS011;41802;51.564;-1.838;2023-07-24T03:08:30;7.13;;;1.88;;
55879;SDS011;41802;51.564;-1.838;2023-07-24T03:11:15;7.65;;;1.70;;
55879;SDS011;41802;51.564;-1.838;2023-07-24T03:13:43;6.43;;;2.58;;
55879;SDS011;41802;51.564;-1.838;2023-07-24T03:16:11;9.23;;;2.53;;
55879;SDS011;41802;51.564;-1.838;2023-07-24T03:18:39;7.40;;;2.08;;
55879;SDS011;41802;51.564;-1.838;2023-07-24T03:21:07;7.15;;;1.85;;
55879;SDS011;41802;51.564;-1.838;2023-07-24T03:23:44;11.23;;;1.95;;
55879;SDS011;41802;51.564;-1.838;2023-07-24T03:26:11;6.72;;;1.67;;
55879;SDS011;41802;51.564;-1.838;2023-07-24T03:28:39;8.10;;;2.17;;
55879;SDS011;41802;51.564;-1.838;2023-07-24T03:31:09;8.60;;;1.65;;
55879;SDS011;41802;51.564;-1.838;2023-07-24T03:33:37;11.10;;;2.10;;
55879;SDS011;41802;51.564;-1.838;2023-07-24T03:36:05;7.43;;;1.85;;
55879;SDS011;41802;51.564;-1.838;2023-07-24T03:38:32;6.35;;;2.08;;
55879;SDS011;41802;51.564;-1.838;2023-07-24T03:41:03;10.40;;;2.20;;
55879;SDS011;41802;51.564;-1.838;2023-07-24T03:43:32;5.93;;;1.88;;
55879;SDS011;41802;51.564;-1.838;2023-07-24T03:46:05;7.50;;;2.35;;
55879;SDS011;41802;51.564;-1.838;2023-07-24T03:48:32;8.02;;;2.05;;
55879;SDS011;41802;51.564;-1.838;2023-07-24T03:51:01;5.90;;;2.28;;
55879;SDS011;41802;51.564;-1.838;2023-07-24T03:53:29;8.13;;;2.13;;
55879;SDS011;41802;51.564;-1.838;2023-07-24T03:55:58;8.68;;;2.28;;
55879;SDS011;41802;51.564;-1.838;2023-07-24T03:58:29;11.60;;;2.28;;
55879;SDS011;41802;51.564;-1.838;2023-07-24T04:00:57;7.28;;;2.42;;
55879;SDS011;41802;51.564;-1.838;2023-07-24T04:03:25;8.13;;;2.45;;
55879;SDS011;41802;51.564;-1.838;2023-07-24T04:05:53;7.63;;;2.50;;
55879;SDS011;41802;51.564;-1.838;2023-07-24T04:08:21;7.20;;;2.20;;
55879;SDS011;41802;51.564;-1.838;2023-07-24T04:10:48;8.05;;;1.98;;
55879;SDS011;41802;51.564;-1.838;2023-07-24T04:13:16;6.88;;;2.10;;
55879;SDS011;41802;51.564;-1.838;2023-07-24T04:15:45;8.70;;;2.40;;
55879;SDS011;41802;51.564;-1.838;2023-07-24T04:18:13;5.60;;;1.90;;
55879;SDS011;41802;51.564;-1.838;2023-07-24T04:20:40;7.70;;;2.28;;
55879;SDS011;41802;51.564;-1.838;2023-07-24T04:23:09;9.30;;;2.33;;
55879;SDS011;41802;51.564;-1.838;2023-07-24T04:25:37;8.10;;;2.15;;
55879;SDS011;41802;51.564;-1.838;2023-07-24T04:28:06;6.47;;;1.95;;
55879;SDS011;41802;51.564;-1.838;2023-07-24T04:30:34;6.63;;;1.70;;
55879;SDS011;41802;51.564;-1.838;2023-07-24T04:33:03;6.63;;;1.70;;
55879;SDS011;41802;51.564;-1.838;2023-07-24T04:35:30;7.75;;;2.00;;
55879;SDS011;41802;51.564;-1.838;2023-07-24T04:37:58;5.43;;;1.67;;
55879;SDS011;41802;51.564;-1.838;2023-07-24T04:40:26;5.57;;;1.80;;
55879;SDS011;41802;51.564;-1.838;2023-07-24T04:42:53;7.83;;;2.10;;
55879;SDS011;41802;51.564;-1.838;2023-07-24T04:45:21;7.20;;;2.00;;
55879;SDS011;41802;51.564;-1.838;2023-07-24T04:47:49;6.47;;;2.30;;
55879;SDS011;41802;51.564;-1.838;2023-07-24T04:50:18;7.72;;;1.95;;
55879;SDS011;41802;51.564;-1.838;2023-07-24T04:52:46;5.30;;;2.00;;
55879;SDS011;41802;51.564;-1.838;2023-07-24T04:55:14;6.53;;;1.97;;
55879;SDS011;41802;51.564;-1.838;2023-07-24T04:57:41;6.97;;;2.08;;
55879;SDS011;41802;51.564;-1.838;2023-07-24T05:00:10;8.38;;;2.38;;
55879;SDS011;41802;51.564;-1.838;2023-07-24T05:02:37;7.75;;;1.85;;
55879;SDS011;41802;51.564;-1.838;2023-07-24T05:05:05;6.53;;;1.90;;
55879;SDS011;41802;51.564;-1.838;2023-07-24T05:07:35;7.23;;;1.87;;
55879;SDS011;41802;51.564;-1.838;2023-07-24T05:10:03;8.65;;;2.13;;
55879;SDS011;41802;51.564;-1.838;2023-07-24T05:12:33;9.05;;;2.03;;
55879;SDS011;41802;51.564;-1.838;2023-07-24T05:15:01;7.60;;;2.30;;
55879;SDS011;41802;51.564;-1.838;2023-07-24T05:17:29;8.32;;;2.10;;
55879;SDS011;41802;51.564;-1.838;2023-07-24T05:19:56;6.20;;;2.00;;
55879;SDS011;41802;51.564;-1.838;2023-07-24T05:22:24;8.32;;;1.85;;
55879;SDS011;41802;51.564;-1.838;2023-07-24T05:24:54;6.68;;;2.30;;
55879;SDS011;41802;51.564;-1.838;2023-07-24T05:27:24;6.93;;;2.30;;
55879;SDS011;41802;51.564;-1.838;2023-07-24T05:29:52;5.45;;;1.75;;
55879;SDS011;41802;51.564;-1.838;2023-07-24T05:32:20;6.97;;;2.23;;
55879;SDS011;41802;51.564;-1.838;2023-07-24T05:34:47;8.75;;;2.35;;
55879;SDS011;41802;51.564;-1.838;2023-07-24T05:37:15;7.32;;;2.20;;
55879;SDS011;41802;51.564;-1.838;2023-07-24T05:39:43;8.00;;;2.22;;
55879;SDS011;41802;51.564;-1.838;2023-07-24T05:42:12;6.28;;;2.15;;
55879;SDS011;41802;51.564;-1.838;2023-07-24T05:44:40;6.87;;;1.97;;
55879;SDS011;41802;51.564;-1.838;2023-07-24T05:47:08;7.30;;;2.10;;
55879;SDS011;41802;51.564;-1.838;2023-07-24T05:49:45;8.43;;;2.63;;
55879;SDS011;41802;51.564;-1.838;2023-07-24T05:52:13;8.68;;;2.38;;
55879;SDS011;41802;51.564;-1.838;2023-07-24T05:54:41;9.55;;;2.20;;
55879;SDS011;41802;51.564;-1.838;2023-07-24T05:57:09;8.00;;;2.47;;
55879;SDS011;41802;51.564;-1.838;2023-07-24T05:59:38;8.43;;;2.60;;
55879;SDS011;41802;51.564;-1.838;2023-07-24T06:02:06;8.57;;;2.78;;
55879;SDS011;41802;51.564;-1.838;2023-07-24T06:04:34;10.52;;;3.05;;
55879;SDS011;41802;51.564;-1.838;2023-07-24T06:07:02;8.38;;;2.58;;
55879;SDS011;41802;51.564;-1.838;2023-07-24T06:09:30;9.50;;;3.10;;
55879;SDS011;41802;51.564;-1.838;2023-07-24T06:11:58;8.80;;;2.92;;
55879;SDS011;41802;51.564;-1.838;2023-07-24T06:14:25;7.45;;;2.75;;
55879;SDS011;41802;51.564;-1.838;2023-07-24T06:16:55;7.40;;;2.40;;
55879;SDS011;41802;51.564;-1.838;2023-07-24T06:19:23;8.48;;;2.35;;
55879;SDS011;41802;51.564;-1.838;2023-07-24T06:21:50;9.57;;;2.67;;
55879;SDS011;41802;51.564;-1.838;2023-07-24T06:24:18;7.43;;;2.60;;
55879;SDS011;41802;51.564;-1.838;2023-07-24T06:26:47;7.63;;;2.47;;
55879;SDS011;41802;51.564;-1.838;2023-07-24T06:29:14;6.80;;;2.53;;
55879;SDS011;41802;51.564;-1.838;2023-07-24T06:31:42;7.30;;;2.15;;
55879;SDS011;41802;51.564;-1.838;2023-07-24T06:34:11;6.50;;;1.60;;
55879;SDS011;41802;51.564;-1.838;2023-07-24T06:36:39;4.30;;;1.10;;
55879;SDS011;41802;51.564;-1.838;2023-07-24T06:39:10;3.97;;;0.90;;
55879;SDS011;41802;51.564;-1.838;2023-07-24T06:41:37;3.95;;;0.80;;
55879;SDS011;41802;51.564;-1.838;2023-07-24T06:44:05;2.85;;;0.70;;
55879;SDS011;41802;51.564;-1.838;2023-07-24T06:46:33;3.07;;;0.60;;
55879;SDS011;41802;51.564;-1.838;2023-07-24T06:49:00;2.30;;;0.60;;
55879;SDS011;41802;51.564;-1.838;2023-07-24T06:51:29;2.30;;;0.55;;
55879;SDS011;41802;51.564;-1.838;2023-07-24T06:53:57;2.63;;;0.43;;
55879;SDS011;41802;51.564;-1.838;2023-07-24T06:56:25;2.40;;;0.52;;
55879;SDS011;41802;51.564;-1.838;2023-07-24T06:58:53;4.10;;;0.60;;
55879;SDS011;41802;51.564;-1.838;2023-07-24T07:01:21;2.88;;;0.57;;
55879;SDS011;41802;51.564;-1.838;2023-07-24T07:03:49;2.97;;;0.40;;
55879;SDS011;41802;51.564;-1.838;2023-07-24T07:06:16;2.50;;;0.52;;
55879;SDS011;41802;51.564;-1.838;2023-07-24T07:08:48;2.97;;;0.50;;
55879;SDS011;41802;51.564;-1.838;2023-07-24T07:11:16;2.80;;;0.60;;
55879;SDS011;41802;51.564;-1.838;2023-07-24T07:13:43;4.60;;;0.50;;
55879;SDS011;41802;51.564;-1.838;2023-07-24T07:16:11;2.53;;;0.40;;
55879;SDS011;41802;51.564;-1.838;2023-07-24T07:18:39;3.10;;;0.40;;
55879;SDS011;41802;51.564;-1.838;2023-07-24T07:21:06;3.13;;;0.60;;
55879;SDS011;41802;51.564;-1.838;2023-07-24T07:23:36;2.20;;;0.50;;
55879;SDS011;41802;51.564;-1.838;2023-07-24T07:26:05;2.90;;;0.60;;
55879;SDS011;41802;51.564;-1.838;2023-07-24T07:28:33;2.63;;;0.63;;
55879;SDS011;41802;51.564;-1.838;2023-07-24T07:31:01;2.53;;;0.50;;
55879;SDS011;41802;51.564;-1.838;2023-07-24T07:33:28;2.75;;;0.77;;
55879;SDS011;41802;51.564;-1.838;2023-07-24T07:35:57;3.83;;;0.30;;
55879;SDS011;41802;51.564;-1.838;2023-07-24T07:38:27;1.63;;;0.20;;
55879;SDS011;41802;51.564;-1.838;2023-07-24T07:40:54;2.33;;;0.40;;
55879;SDS011;41802;51.564;-1.838;2023-07-24T07:43:24;2.40;;;0.30;;
55879;SDS011;41802;51.564;-1.838;2023-07-24T07:45:51;3.20;;;0.55;;
55879;SDS011;41802;51.564;-1.838;2023-07-24T07:48:19;2.37;;;0.50;;
55879;SDS011;41802;51.564;-1.838;2023-07-24T07:50:49;1.75;;;0.30;;
55879;SDS011;41802;51.564;-1.838;2023-07-24T07:53:17;2.58;;;0.40;;
55879;SDS011;41802;51.564;-1.838;2023-07-24T07:55:45;2.47;;;0.40;;
55879;SDS011;41802;51.564;-1.838;2023-07-24T07:58:12;2.80;;;0.30;;
55879;SDS011;41802;51.564;-1.838;2023-07-24T08:00:42;2.83;;;0.50;;
55879;SDS011;41802;51.564;-1.838;2023-07-24T08:03:09;8.52;;;0.60;;
55879;SDS011;41802;51.564;-1.838;2023-07-24T08:05:37;3.22;;;0.50;;
55879;SDS011;41802;51.564;-1.838;2023-07-24T08:08:05;2.08;;;0.30;;
55879;SDS011;41802;51.564;-1.838;2023-07-24T08:10:33;2.33;;;0.43;;
55879;SDS011;41802;51.564;-1.838;2023-07-24T08:13:01;2.50;;;0.47;;
55879;SDS011;41802;51.564;-1.838;2023-07-24T08:15:28;3.70;;;0.30;;
55879;SDS011;41802;51.564;-1.838;2023-07-24T08:18:00;2.65;;;0.43;;
55879;SDS011;41802;51.564;-1.838;2023-07-24T08:20:28;2.13;;;0.37;;
55879;SDS011;41802;51.564;-1.838;2023-07-24T08:22:56;1.85;;;0.30;;
55879;SDS011;41802;51.564;-1.838;2023-07-24T08:25:24;2.20;;;0.40;;
55879;SDS011;41802;51.564;-1.838;2023-07-24T08:27:51;1.92;;;0.30;;
55879;SDS011;41802;51.564;-1.838;2023-07-24T08:30:31;2.33;;;0.30;;
55879;SDS011;41802;51.564;-1.838;2023-07-24T08:33:00;2.43;;;0.40;;
55879;SDS011;41802;51.564;-1.838;2023-07-24T08:35:28;2.45;;;0.30;;
55879;SDS011;41802;51.564;-1.838;2023-07-24T08:37:56;2.22;;;0.40;;
55879;SDS011;41802;51.564;-1.838;2023-07-24T08:40:23;2.33;;;0.43;;
55879;SDS011;41802;51.564;-1.838;2023-07-24T08:42:51;1.90;;;0.40;;
55879;SDS011;41802;51.564;-1.838;2023-07-24T08:45:20;2.10;;;0.30;;
55879;SDS011;41802;51.564;-1.838;2023-07-24T08:47:48;1.73;;;0.25;;
55879;SDS011;41802;51.564;-1.838;2023-07-24T08:50:17;2.65;;;0.45;;
55879;SDS011;41802;51.564;-1.838;2023-07-24T08:52:45;2.35;;;0.40;;
55879;SDS011;41802;51.564;-1.838;2023-07-24T08:55:13;3.25;;;0.65;;
55879;SDS011;41802;51.564;-1.838;2023-07-24T08:57:41;3.03;;;0.60;;
55879;SDS011;41802;51.564;-1.838;2023-07-24T09:00:09;3.00;;;0.60;;
55879;SDS011;41802;51.564;-1.838;2023-07-24T09:02:38;3.70;;;1.10;;
55879;SDS011;41802;51.564;-1.838;2023-07-24T09:05:06;4.22;;;1.00;;
55879;SDS011;41802;51.564;-1.838;2023-07-24T09:07:37;3.50;;;0.98;;
55879;SDS011;41802;51.564;-1.838;2023-07-24T09:10:05;4.53;;;0.90;;
55879;SDS011;41802;51.564;-1.838;2023-07-24T09:12:37;3.40;;;0.63;;
55879;SDS011;41802;51.564;-1.838;2023-07-24T09:15:08;3.47;;;0.80;;
55879;SDS011;41802;51.564;-1.838;2023-07-24T09:17:36;3.15;;;0.75;;
55879;SDS011;41802;51.564;-1.838;2023-07-24T09:20:04;3.30;;;0.80;;
55879;SDS011;41802;51.564;-1.838;2023-07-24T09:22:32;3.70;;;0.60;;
55879;SDS011;41802;51.564;-1.838;2023-07-24T09:25:01;2.83;;;0.60;;
55879;SDS011;41802;51.564;-1.838;2023-07-24T09:27:30;4.07;;;0.80;;
55879;SDS011;41802;51.564;-1.838;2023-07-24T09:29:59;3.40;;;0.77;;
55879;SDS011;41802;51.564;-1.838;2023-07-24T09:32:27;3.85;;;0.93;;
55879;SDS011;41802;51.564;-1.838;2023-07-24T09:34:57;2.93;;;0.70;;
55879;SDS011;41802;51.564;-1.838;2023-07-24T09:37:25;3.22;;;0.70;;
55879;SDS011;41802;51.564;-1.838;2023-07-24T09:39:53;3.28;;;0.80;;
55879;SDS011;41802;51.564;-1.838;2023-07-24T09:42:30;3.00;;;0.65;;
55879;SDS011;41802;51.564;-1.838;2023-07-24T09:44:59;3.83;;;0.70;;
55879;SDS011;41802;51.564;-1.838;2023-07-24T09:47:28;3.57;;;0.60;;
55879;SDS011;41802;51.564;-1.838;2023-07-24T09:50:17;3.80;;;0.85;;
55879;SDS011;41802;51.564;-1.838;2023-07-24T09:52:45;3.80;;;1.17;;
55879;SDS011;41802;51.564;-1.838;2023-07-24T09:55:15;3.38;;;1.00;;
55879;SDS011;41802;51.564;-1.838;2023-07-24T09:57:48;3.67;;;1.00;;
55879;SDS011;41802;51.564;-1.838;2023-07-24T10:00:17;2.83;;;0.53;;
55879;SDS011;41802;51.564;-1.838;2023-07-24T10:02:44;3.53;;;0.90;;
55879;SDS011;41802;51.564;-1.838;2023-07-24T10:05:13;4.75;;;0.90;;
55879;SDS011;41802;51.564;-1.838;2023-07-24T10:07:42;4.05;;;0.60;;
55879;SDS011;41802;51.564;-1.838;2023-07-24T10:10:10;3.30;;;0.70;;
55879;SDS011;41802;51.564;-1.838;2023-07-24T10:12:38;3.40;;;0.90;;
55879;SDS011;41802;51.564;-1.838;2023-07-24T10:15:07;4.28;;;0.80;;
55879;SDS011;41802;51.564;-1.838;2023-07-24T10:17:35;3.53;;;0.65;;
55879;SDS011;41802;51.564;-1.838;2023-07-24T10:20:04;4.20;;;0.82;;
55879;SDS011;41802;51.564;-1.838;2023-07-24T10:22:33;2.92;;;0.60;;
55879;SDS011;41802;51.564;-1.838;2023-07-24T10:25:01;4.40;;;0.83;;
55879;SDS011;41802;51.564;-1.838;2023-07-24T10:27:29;3.47;;;1.00;;
55879;SDS011;41802;51.564;-1.838;2023-07-24T10:29:58;3.15;;;0.85;;
55879;SDS011;41802;51.564;-1.838;2023-07-24T10:32:27;3.53;;;0.82;;
55879;SDS011;41802;51.564;-1.838;2023-07-24T10:34:55;4.35;;;0.82;;
55879;SDS011;41802;51.564;-1.838;2023-07-24T10:37:30;4.17;;;0.80;;
55879;SDS011;41802;51.564;-1.838;2023-07-24T10:39:58;3.50;;;1.15;;
55879;SDS011;41802;51.564;-1.838;2023-07-24T10:42:26;3.10;;;0.80;;
55879;SDS011;41802;51.564;-1.838;2023-07-24T10:45:01;2.83;;;0.70;;
55879;SDS011;41802;51.564;-1.838;2023-07-24T10:47:31;4.15;;;1.00;;
55879;SDS011;41802;51.564;-1.838;2023-07-24T10:49:59;3.77;;;1.00;;
55879;SDS011;41802;51.564;-1.838;2023-07-24T10:52:27;3.78;;;1.02;;
55879;SDS011;41802;51.564;-1.838;2023-07-24T10:54:55;5.05;;;1.45;;
55879;SDS011;41802;51.564;-1.838;2023-07-24T10:57:31;3.70;;;1.17;;
55879;SDS011;41802;51.564;-1.838;2023-07-24T10:59:59;4.88;;;1.10;;
55879;SDS011;41802;51.564;-1.838;2023-07-24T11:02:27;3.97;;;1.10;;
55879;SDS011;41802;51.564;-1.838;2023-07-24T11:04:57;4.95;;;1.30;;
55879;SDS011;41802;51.564;-1.838;2023-07-24T11:07:26;3.70;;;0.95;;
55879;SDS011;41802;51.564;-1.838;2023-07-24T11:09:58;3.28;;;0.80;;
55879;SDS011;41802;51.564;-1.838;2023-07-24T11:12:38;4.70;;;1.20;;
55879;SDS011;41802;51.564;-1.838;2023-07-24T11:15:06;3.10;;;0.80;;
55879;SDS011;41802;51.564;-1.838;2023-07-24T11:17:35;3.45;;;0.82;;
55879;SDS011;41802;51.564;-1.838;2023-07-24T11:20:09;3.40;;;0.80;;
55879;SDS011;41802;51.564;-1.838;2023-07-24T11:22:38;4.72;;;1.10;;
55879;SDS011;41802;51.564;-1.838;2023-07-24T11:25:06;4.35;;;1.23;;
55879;SDS011;41802;51.564;-1.838;2023-07-24T11:27:37;4.07;;;1.00;;
55879;SDS011;41802;51.564;-1.838;2023-07-24T11:30:05;4.03;;;1.42;;
55879;SDS011;41802;51.564;-1.838;2023-07-24T11:32:33;4.30;;;1.10;;
55879;SDS011;41802;51.564;-1.838;2023-07-24T11:35:01;4.57;;;1.20;;
55879;SDS011;41802;51.564;-1.838;2023-07-24T11:37:35;3.42;;;1.10;;
55879;SDS011;41802;51.564;-1.838;2023-07-24T11:40:04;3.80;;;0.93;;
55879;SDS011;41802;51.564;-1.838;2023-07-24T11:42:37;3.85;;;1.00;;
55879;SDS011;41802;51.564;-1.838;2023-07-24T11:45:06;3.50;;;1.10;;
55879;SDS011;41802;51.564;-1.838;2023-07-24T11:47:43;3.58;;;1.08;;
55879;SDS011;41802;51.564;-1.838;2023-07-24T11:50:11;7.30;;;1.58;;
55879;SDS011;41802;51.564;-1.838;2023-07-24T11:52:40;3.83;;;1.10;;
55879;SDS011;41802;51.564;-1.838;2023-07-24T11:55:10;3.55;;;1.13;;
55879;SDS011;41802;51.564;-1.838;2023-07-24T11:57:38;3.05;;;0.88;;
55879;SDS011;41802;51.564;-1.838;2023-07-24T12:00:06;4.70;;;1.00;;
55879;SDS011;41802;51.564;-1.838;2023-07-24T12:02:36;3.30;;;0.88;;
55879;SDS011;41802;51.564;-1.838;2023-07-24T12:05:04;3.53;;;1.10;;
55879;SDS011;41802;51.564;-1.838;2023-07-24T12:07:32;3.90;;;1.00;;
55879;SDS011;41802;51.564;-1.838;2023-07-24T12:10:02;4.35;;;1.25;;
55879;SDS011;41802;51.564;-1.838;2023-07-24T12:12:38;3.50;;;0.80;;
55879;SDS011;41802;51.564;-1.838;2023-07-24T12:15:06;6.65;;;1.05;;
55879;SDS011;41802;51.564;-1.838;2023-07-24T12:17:34;3.60;;;0.80;;
55879;SDS011;41802;51.564;-1.838;2023-07-24T12:20:01;3.73;;;1.30;;
55879;SDS011;41802;51.564;-1.838;2023-07-24T12:22:31;4.75;;;0.93;;
55879;SDS011;41802;51.564;-1.838;2023-07-24T12:24:59;3.70;;;0.55;;
55879;SDS011;41802;51.564;-1.838;2023-07-24T12:27:28;3.22;;;0.82;;
55879;SDS011;41802;51.564;-1.838;2023-07-24T12:29:56;3.53;;;0.70;;
55879;SDS011;41802;51.564;-1.838;2023-07-24T12:32:24;3.07;;;0.70;;
55879;SDS011;41802;51.564;-1.838;2023-07-24T12:34:52;4.43;;;0.85;;
55879;SDS011;41802;51.564;-1.838;2023-07-24T12:37:20;3.40;;;0.95;;
55879;SDS011;41802;51.564;-1.838;2023-07-24T12:39:48;5.03;;;0.93;;
55879;SDS011;41802;51.564;-1.838;2023-07-24T12:42:16;4.15;;;1.33;;
55879;SDS011;41802;51.564;-1.838;2023-07-24T12:44:45;4.47;;;1.50;;
55879;SDS011;41802;51.564;-1.838;2023-07-24T12:47:14;3.88;;;1.23;;
55879;SDS011;41802;51.564;-1.838;2023-07-24T12:49:41;5.07;;;1.30;;
55879;SDS011;41802;51.564;-1.838;2023-07-24T12:52:09;6.30;;;1.20;;
55879;SDS011;41802;51.564;-1.838;2023-07-24T12:54:37;3.50;;;0.88;;
55879;SDS011;41802;51.564;-1.838;2023-07-24T12:57:24;3.50;;;1.00;;
55879;SDS011;41802;51.564;-1.838;2023-07-24T12:59:55;4.85;;;1.20;;
55879;SDS011;41802;51.564;-1.838;2023-07-24T13:02:22;4.93;;;0.90;;
55879;SDS011;41802;51.564;-1.838;2023-07-24T13:04:50;3.55;;;1.08;;
55879;SDS011;41802;51.564;-1.838;2023-07-24T13:07:19;3.80;;;1.38;;
55879;SDS011;41802;51.564;-1.838;2023-07-24T13:09:47;6.32;;;1.50;;
55879;SDS011;41802;51.564;-1.838;2023-07-24T13:12:15;5.07;;;1.20;;
55879;SDS011;41802;51.564;-1.838;2023-07-24T13:14:43;4.67;;;1.10;;
55879;SDS011;41802;51.564;-1.838;2023-07-24T13:17:12;3.53;;;1.00;;
55879;SDS011;41802;51.564;-1.838;2023-07-24T13:19:42;3.85;;;1.20;;
55879;SDS011;41802;51.564;-1.838;2023-07-24T13:22:12;3.95;;;1.17;;
55879;SDS011;41802;51.564;-1.838;2023-07-24T13:24:39;4.90;;;0.93;;
55879;SDS011;41802;51.564;-1.838;2023-07-24T13:27:07;4.00;;;0.90;;
55879;SDS011;41802;51.564;-1.838;2023-07-24T13:29:35;4.40;;;1.05;;
55879;SDS011;41802;51.564;-1.838;2023-07-24T13:32:03;4.72;;;1.20;;
55879;SDS011;41802;51.564;-1.838;2023-07-24T13:34:32;3.72;;;0.98;;
55879;SDS011;41802;51.564;-1.838;2023-07-24T13:37:00;4.07;;;1.00;;
55879;SDS011;41802;51.564;-1.838;2023-07-24T13:39:28;3.60;;;1.07;;
55879;SDS011;41802;51.564;-1.838;2023-07-24T13:41:58;4.20;;;1.35;;
55879;SDS011;41802;51.564;-1.838;2023-07-24T13:44:25;5.30;;;1.60;;
55879;SDS011;41802;51.564;-1.838;2023-07-24T13:46:53;6.60;;;1.58;;
55879;SDS011;41802;51.564;-1.838;2023-07-24T13:49:22;5.18;;;1.50;;
55879;SDS011;41802;51.564;-1.838;2023-07-24T13:51:51;5.23;;;1.80;;
55879;SDS011;41802;51.564;-1.838;2023-07-24T13:54:19;4.53;;;1.52;;
55879;SDS011;41802;51.564;-1.838;2023-07-24T13:56:47;4.47;;;1.60;;
55879;SDS011;41802;51.564;-1.838;2023-07-24T13:59:15;5.95;;;1.55;;
55879;SDS011;41802;51.564;-1.838;2023-07-24T14:01:42;7.00;;;1.80;;
55879;SDS011;41802;51.564;-1.838;2023-07-24T14:04:11;4.53;;;1.83;;
55879;SDS011;41802;51.564;-1.838;2023-07-24T14:06:41;4.32;;;1.50;;
55879;SDS011;41802;51.564;-1.838;2023-07-24T14:09:10;4.10;;;1.50;;
55879;SDS011;41802;51.564;-1.838;2023-07-24T14:11:39;5.03;;;1.58;;
55879;SDS011;41802;51.564;-1.838;2023-07-24T14:14:08;5.43;;;2.17;;
55879;SDS011;41802;51.564;-1.838;2023-07-24T14:16:35;5.83;;;1.70;;
55879;SDS011;41802;51.564;-1.838;2023-07-24T14:19:07;4.43;;;1.42;;
55879;SDS011;41802;51.564;-1.838;2023-07-24T14:21:34;6.03;;;1.30;;
55879;SDS011;41802;51.564;-1.838;2023-07-24T14:24:03;5.22;;;1.45;;
55879;SDS011;41802;51.564;-1.838;2023-07-24T14:26:32;5.80;;;1.80;;
55879;SDS011;41802;51.564;-1.838;2023-07-24T14:29:02;4.97;;;1.30;;
55879;SDS011;41802;51.564;-1.838;2023-07-24T14:31:30;4.88;;;1.90;;
55879;SDS011;41802;51.564;-1.838;2023-07-24T14:33:58;5.40;;;2.25;;
55879;SDS011;41802;51.564;-1.838;2023-07-24T14:36:26;4.15;;;1.42;;
55879;SDS011;41802;51.564;-1.838;2023-07-24T14:39:00;5.07;;;1.80;;
55879;SDS011;41802;51.564;-1.838;2023-07-24T14:41:28;5.70;;;1.80;;
55879;SDS011;41802;51.564;-1.838;2023-07-24T14:43:58;5.38;;;1.58;;